createdAt,value
2023-01-15T00:00:39.181Z,101632.31
2023-01-15T00:03:07.216Z,101631.41
2023-01-15T00:05:49.935Z,101628.84
2023-01-15T00:08:38.314Z,101626.22
2023-01-15T00:11:14.040Z,101640.13
2023-01-15T00:13:48.484Z,101641.03
2023-01-15T00:16:23.725Z,101632.44
2023-01-15T00:19:01.376Z,101628.09
2023-01-15T00:21:39.194Z,101632.47
2023-01-15T00:24:39.903Z,101631.50
2023-01-15T00:27:43.781Z,101630.53
2023-01-15T00:30:29.588Z,101623.69
2023-01-15T00:33:06.356Z,101623.66
2023-01-15T00:35:44.457Z,101616.75
2023-01-15T00:38:21.110Z,101622.16
2023-01-15T00:40:57.897Z,101605.56
2023-01-15T00:43:25.002Z,101615.97
2023-01-15T00:45:59.495Z,101613.25
2023-01-15T00:48:28.857Z,101606.22
2023-01-15T00:50:55.578Z,101606.16
2023-01-15T00:53:31.785Z,101600.06
2023-01-15T00:56:06.919Z,101605.25
2023-01-15T00:58:36.835Z,101598.31
2023-01-15T01:03:49.205Z,101592.13
2023-01-15T01:06:17.331Z,101592.16
2023-01-15T01:08:48.003Z,101587.75
2023-01-15T01:11:17.446Z,101586.06
2023-01-15T01:13:45.264Z,101576.44
2023-01-15T01:16:27.418Z,101574.59
2023-01-15T01:19:01.891Z,101571.13
2023-01-15T01:21:28.711Z,101566.00
2023-01-15T01:24:00.903Z,101562.47
2023-01-15T01:26:31.414Z,101568.59
2023-01-15T01:28:58.569Z,101567.69
2023-01-15T01:31:28.301Z,101559.91
2023-01-15T01:33:57.932Z,101562.47
2023-01-15T01:36:33.940Z,101567.66
2023-01-15T01:39:07.735Z,101563.28
2023-01-15T01:41:36.554Z,101563.28
2023-01-15T01:44:35.025Z,101554.53
2023-01-15T01:47:16.596Z,101548.53
2023-01-15T01:49:49.242Z,101553.81
2023-01-15T01:52:21.326Z,101547.63
2023-01-15T01:54:50.013Z,101551.91
2023-01-15T02:00:07.247Z,101544.97
2023-01-15T02:02:34.261Z,101539.75
2023-01-15T02:05:07.469Z,101538.78
2023-01-15T02:07:38.655Z,101539.53
2023-01-15T02:10:17.267Z,101549.97
2023-01-15T02:12:57.588Z,101552.63
2023-01-15T02:15:38.686Z,101536.28
2023-01-15T02:18:23.968Z,101539.75
2023-01-15T02:21:30.340Z,101534.38
2023-01-15T02:24:28.544Z,101529.13
2023-01-15T02:27:19.664Z,101525.63
2023-01-15T02:30:14.020Z,101524.81
2023-01-15T02:35:58.574Z,101516.84
2023-01-15T02:38:32.633Z,101515.94
2023-01-15T02:41:09.453Z,101515.16
2023-01-15T02:43:47.672Z,101501.28
2023-01-15T02:46:29.817Z,101504.72
2023-01-15T02:49:07.690Z,101509.09
2023-01-15T02:51:49.053Z,101499.59
2023-01-15T02:54:30.232Z,101491.72
2023-01-15T02:57:02.610Z,101493.31
2023-01-15T02:59:44.100Z,101494.25
2023-01-15T03:02:27.469Z,101494.19
2023-01-15T03:05:43.876Z,101488.97
2023-01-15T03:08:18.233Z,101489.03
2023-01-15T03:11:07.611Z,101487.25
2023-01-15T03:13:47.147Z,101483.97
2023-01-15T03:16:35.194Z,101484.88
2023-01-15T03:19:39.532Z,101457.91
2023-01-15T03:22:13.335Z,101461.31
2023-01-15T03:25:21.634Z,101467.31
2023-01-15T03:27:55.327Z,101464.66
2023-01-15T03:30:26.357Z,101457.75
2023-01-15T03:33:01.941Z,101453.44
2023-01-15T03:36:25.090Z,101443.91
2023-01-15T03:39:09.001Z,101443.78
2023-01-15T03:42:02.811Z,101436.72
2023-01-15T03:44:58.882Z,101430.66
2023-01-15T03:48:18.916Z,101429.94
2023-01-15T03:51:34.756Z,101433.34
2023-01-15T03:54:10.350Z,101422.88
2023-01-15T04:00:34.424Z,101427.19
2023-01-15T04:03:17.001Z,101428.91
2023-01-15T04:05:44.540Z,101428.06
2023-01-15T04:08:22.792Z,101426.34
2023-01-15T04:11:22.384Z,101422.81
2023-01-15T04:13:56.291Z,101421.13
2023-01-15T04:16:41.662Z,101423.72
2023-01-15T04:19:17.237Z,101433.25
2023-01-15T04:21:44.376Z,101426.31
2023-01-15T04:24:18.989Z,101424.53
2023-01-15T04:26:58.106Z,101418.44
2023-01-15T04:34:55.499Z,101401.03
2023-01-15T04:37:23.237Z,101402.81
2023-01-15T04:39:52.992Z,101391.44
2023-01-15T04:42:48.467Z,101387.22
2023-01-15T04:45:36.433Z,101385.44
2023-01-15T04:48:15.266Z,101380.31
2023-01-15T04:50:53.383Z,101386.38
2023-01-15T04:53:25.920Z,101384.59
2023-01-15T04:55:53.087Z,101385.50
2023-01-15T04:58:33.500Z,101375.91
2023-01-15T05:01:54.383Z,101381.13
2023-01-15T05:04:31.078Z,101382.91
2023-01-15T05:07:06.187Z,101381.13
2023-01-15T05:09:37.447Z,101374.16
2023-01-15T05:12:22.017Z,101375.94
2023-01-15T05:14:49.577Z,101368.09
2023-01-15T05:17:41.401Z,101357.59
2023-01-15T05:20:26.878Z,101344.56
2023-01-15T05:23:09.367Z,101336.72
2023-01-15T05:25:52.297Z,101334.97
2023-01-15T05:28:31.676Z,101337.59
2023-01-15T05:31:09.513Z,101339.28
2023-01-15T05:33:47.029Z,101340.16
2023-01-15T05:36:23.527Z,101341.88
2023-01-15T05:38:50.457Z,101345.38
2023-01-15T05:41:47.872Z,101340.19
2023-01-15T05:44:34.566Z,101339.28
2023-01-15T05:47:20.052Z,101334.91
2023-01-15T05:49:48.771Z,101335.72
2023-01-15T05:52:24.493Z,101328.69
2023-01-15T05:55:01.877Z,101328.75
2023-01-15T05:57:36.920Z,101322.66
2023-01-15T06:00:09.981Z,101327.97
2023-01-15T06:02:45.790Z,101328.81
2023-01-15T06:05:33.564Z,101334.88
2023-01-15T06:08:23.022Z,101335.72
2023-01-15T06:11:09.221Z,101339.19
2023-01-15T06:13:48.453Z,101346.19
2023-01-15T06:16:35.215Z,101347.06
2023-01-15T06:19:15.718Z,101339.22
2023-01-15T06:21:48.234Z,101332.28
2023-01-15T06:24:23.664Z,101321.84
2023-01-15T06:26:51.955Z,101321.81
2023-01-15T06:29:30.016Z,101333.97
2023-01-15T06:32:20.178Z,101319.19
2023-01-15T06:34:49.962Z,101321.78
2023-01-15T06:37:30.103Z,101314.88
2023-01-15T06:40:06.803Z,101327.06
2023-01-15T06:42:58.330Z,101328.75
2023-01-15T06:45:44.062Z,101324.41
2023-01-15T06:48:29.271Z,101316.56
2023-01-15T06:51:11.417Z,101318.38
2023-01-15T06:53:49.904Z,101320.13
2023-01-15T06:56:35.557Z,101320.16
2023-01-15T06:59:14.284Z,101318.41
2023-01-15T07:02:01.640Z,101305.31
2023-01-15T07:04:39.881Z,101293.13
2023-01-15T07:07:32.686Z,101278.28
2023-01-15T07:10:10.858Z,101282.66
2023-01-15T07:12:52.389Z,101288.75
2023-01-15T07:15:19.478Z,101287.88
2023-01-15T07:17:52.281Z,101282.66
2023-01-15T07:20:30.055Z,101267.81
2023-01-15T07:22:56.848Z,101258.19
2023-01-15T07:25:23.547Z,101258.19
2023-01-15T07:28:07.451Z,101256.47
2023-01-15T07:30:37.343Z,101262.59
2023-01-15T07:33:25.138Z,101267.81
2023-01-15T07:36:02.771Z,101273.94
2023-01-15T07:38:31.322Z,101270.44
2023-01-15T07:41:34.359Z,101275.66
2023-01-15T07:44:39.134Z,101280.88
2023-01-15T07:47:47.895Z,101274.78
2023-01-15T07:50:30.740Z,101267.81
2023-01-15T07:53:10.980Z,101265.22
2023-01-15T07:55:37.802Z,101270.44
2023-01-15T07:58:14.975Z,101264.34
2023-01-15T08:01:12.618Z,101274.78
2023-01-15T08:03:46.886Z,101270.41
2023-01-15T08:06:15.598Z,101279.13
2023-01-15T08:08:47.672Z,101273.03
2023-01-15T08:11:35.503Z,101276.53
2023-01-15T08:14:23.978Z,101266.03
2023-01-15T08:16:50.825Z,101261.69
2023-01-15T08:19:27.714Z,101262.56
2023-01-15T08:21:54.534Z,101251.22
2023-01-15T08:24:33.275Z,101252.13
2023-01-15T08:27:09.030Z,101251.22
2023-01-15T08:29:49.535Z,101253.00
2023-01-15T08:32:19.284Z,101249.53
2023-01-15T08:34:55.510Z,101250.34
2023-01-15T08:37:34.185Z,101250.34
2023-01-15T08:40:21.221Z,101246.88
2023-01-15T08:42:59.890Z,101242.50
2023-01-15T08:45:32.523Z,101251.25
2023-01-15T08:48:05.592Z,101251.22
2023-01-15T08:50:38.022Z,101250.38
2023-01-15T08:53:28.229Z,101250.34
2023-01-15T08:55:56.876Z,101240.78
2023-01-15T08:58:33.546Z,101237.25
2023-01-15T09:01:12.061Z,101245.94
2023-01-15T09:03:48.355Z,101230.25
2023-01-15T09:06:28.834Z,101224.13
2023-01-15T09:08:56.421Z,101230.31
2023-01-15T09:11:25.148Z,101228.50
2023-01-15T09:13:55.035Z,101225.91
2023-01-15T09:16:41.916Z,101227.63
2023-01-15T09:19:10.449Z,101224.16
2023-01-15T09:21:45.670Z,101215.41
2023-01-15T09:24:31.404Z,101209.25
2023-01-15T09:27:25.472Z,101209.31
2023-01-15T09:30:04.285Z,101207.59
2023-01-15T09:32:40.001Z,101209.38
2023-01-15T09:35:10.891Z,101208.47
2023-01-15T09:37:40.909Z,101212.78
2023-01-15T09:40:20.176Z,101204.97
2023-01-15T09:43:04.202Z,101209.31
2023-01-15T09:45:39.974Z,101216.28
2023-01-15T09:48:41.256Z,101199.75
2023-01-15T09:51:36.910Z,101201.47
2023-01-15T09:54:11.103Z,101191.84
2023-01-15T09:56:55.757Z,101187.50
2023-01-15T09:59:41.383Z,101177.88
2023-01-15T10:02:47.391Z,101177.88
2023-01-15T10:05:23.788Z,101178.81
2023-01-15T10:08:07.374Z,101177.00
2023-01-15T10:10:46.584Z,101170.03
2023-01-15T10:13:31.754Z,101149.97
2023-01-15T10:15:59.570Z,101162.97
2023-01-15T10:18:37.118Z,101156.94
2023-01-15T10:21:39.715Z,101148.25
2023-01-15T10:24:53.360Z,101149.09
2023-01-15T10:27:48.928Z,101138.53
2023-01-15T10:30:43.265Z,101126.00
2023-01-15T10:33:34.919Z,101122.66
2023-01-15T10:36:26.305Z,101110.44
2023-01-15T10:42:33.672Z,101095.81
2023-01-15T10:45:14.854Z,101094.81
2023-01-15T10:48:31.235Z,101097.34
2023-01-15T10:51:10.530Z,101084.38
2023-01-15T10:54:09.276Z,101069.66
2023-01-15T10:57:09.442Z,101069.63
2023-01-15T10:59:57.045Z,101060.88
2023-01-15T11:02:31.854Z,101061.78
2023-01-15T11:05:12.449Z,101052.22
2023-01-15T11:08:26.362Z,101046.09
2023-01-15T11:10:43.504Z,101045.25
2023-01-15T11:13:41.571Z,101039.09
2023-01-15T11:16:46.278Z,101032.97
2023-01-15T11:19:43.158Z,101029.34
2023-01-15T11:22:20.737Z,101026.69
2023-01-15T11:24:54.357Z,101015.31
2023-01-15T11:27:31.277Z,101011.94
2023-01-15T11:30:15.469Z,101009.25
2023-01-15T11:32:51.817Z,101005.75
2023-01-15T11:35:19.608Z,101006.56
2023-01-15T11:37:49.230Z,101007.38
2023-01-15T11:40:25.730Z,100998.59
2023-01-15T11:43:13.771Z,100997.72
2023-01-15T11:46:08.165Z,100986.47
2023-01-15T11:49:09.611Z,100981.09
2023-01-15T11:51:56.191Z,100974.16
2023-01-15T11:54:40.941Z,100972.44
2023-01-15T11:57:13.095Z,100975.13
2023-01-15T11:59:41.510Z,100981.25
2023-01-15T12:02:46.766Z,100969.88
2023-01-15T12:05:37.029Z,100963.88
2023-01-15T12:08:37.145Z,100953.13
2023-01-15T12:11:57.148Z,100964.53
2023-01-15T12:14:49.619Z,100957.53
2023-01-15T12:17:42.072Z,100949.78
2023-01-15T12:20:50.090Z,100941.09
2023-01-15T12:24:13.477Z,100944.66
2023-01-15T12:27:11.803Z,100943.84
2023-01-15T12:29:48.440Z,100935.91
2023-01-15T12:32:28.999Z,100943.59
2023-01-15T12:35:28.518Z,100924.47
2023-01-15T12:38:39.485Z,100907.06
2023-01-15T12:41:15.029Z,100909.72
2023-01-15T12:44:18.370Z,100904.34
2023-01-15T12:46:48.051Z,100902.31
2023-01-15T12:50:08.355Z,100899.78
2023-01-15T12:52:44.545Z,100898.91
2023-01-15T12:55:20.017Z,100886.56
2023-01-15T12:58:01.254Z,100880.53
2023-01-15T13:01:06.015Z,100876.28
2023-01-15T13:03:49.417Z,100884.31
2023-01-15T13:06:24.496Z,100882.44
2023-01-15T13:09:17.893Z,100878.03
2023-01-15T13:11:44.893Z,100872.88
2023-01-15T13:14:22.715Z,100869.56
2023-01-15T13:17:06.039Z,100863.28
2023-01-15T13:20:15.415Z,100855.84
2023-01-15T13:23:04.858Z,100875.34
2023-01-15T13:25:43.663Z,100860.06
2023-01-15T13:28:57.474Z,100865.19
2023-01-15T13:31:39.534Z,100855.69
2023-01-15T13:34:39.139Z,100857.38
2023-01-15T13:37:44.211Z,100861.63
2023-01-15T13:40:38.898Z,100847.41
2023-01-15T13:43:19.225Z,100851.22
2023-01-15T13:45:59.094Z,100848.13
2023-01-15T13:48:57.549Z,100836.09
2023-01-15T13:51:41.342Z,100835.94
2023-01-15T13:54:33.932Z,100828.81
2023-01-15T13:57:28.085Z,100833.19
2023-01-15T14:00:05.017Z,100837.50
2023-01-15T14:02:50.670Z,100834.78
2023-01-15T14:05:23.332Z,100832.97
2023-01-15T14:08:00.995Z,100828.78
2023-01-15T14:10:55.133Z,100830.56
2023-01-15T14:13:54.157Z,100814.03
2023-01-15T14:17:02.492Z,100820.09
2023-01-15T14:19:56.843Z,100809.66
2023-01-15T14:25:48.530Z,100813.28
2023-01-15T14:28:43.293Z,100795.09
2023-01-15T14:31:34.625Z,100801.66
2023-01-15T14:34:19.173Z,100807.66
2023-01-15T14:36:52.168Z,100792.31
2023-01-15T14:40:04.231Z,100786.22
2023-01-15T14:43:03.827Z,100786.63
2023-01-15T14:45:39.530Z,100765.53
2023-01-15T14:48:21.954Z,100763.56
2023-01-15T14:50:50.961Z,100760.94
2023-01-15T14:53:43.463Z,100767.25
2023-01-15T14:56:40.072Z,100755.56
2023-01-15T14:59:28.698Z,100755.25
2023-01-15T15:02:09.170Z,100748.25
2023-01-15T15:04:55.604Z,100746.69
2023-01-15T15:07:35.196Z,100747.19
2023-01-15T15:10:16.718Z,100746.53
2023-01-15T15:13:13.535Z,100744.31
2023-01-15T15:16:10.307Z,100756.38
2023-01-15T15:19:01.615Z,100750.81
2023-01-15T15:21:44.198Z,100744.53
2023-01-15T15:24:55.829Z,100746.31
2023-01-15T15:27:24.652Z,100743.09
2023-01-15T15:30:07.034Z,100738.34
2023-01-15T15:32:51.091Z,100728.47
2023-01-15T15:35:52.756Z,100724.34
2023-01-15T15:38:22.025Z,100714.50
2023-01-15T15:41:06.442Z,100725.66
2023-01-15T15:44:15.785Z,100721.38
2023-01-15T15:47:09.492Z,100712.59
2023-01-15T15:49:49.189Z,100714.59
2023-01-15T15:52:24.104Z,100721.94
2023-01-15T15:55:01.524Z,100722.84
2023-01-15T15:57:45.919Z,100717.69
2023-01-15T16:00:57.425Z,100717.81
2023-01-15T16:03:34.916Z,100712.84
2023-01-15T16:06:24.140Z,100705.81
2023-01-15T16:09:07.064Z,100699.72
2023-01-15T16:12:07.419Z,100706.56
2023-01-15T16:14:38.584Z,100720.84
2023-01-15T16:17:07.932Z,100713.69
2023-01-15T16:22:21.446Z,100718.09
2023-01-15T16:24:59.459Z,100717.41
2023-01-15T16:27:36.732Z,100708.28
2023-01-15T16:30:07.300Z,100718.09
2023-01-15T16:32:39.472Z,100717.09
2023-01-15T16:35:27.462Z,100717.47
2023-01-15T16:38:03.660Z,100711.78
2023-01-15T16:40:46.064Z,100733.97
2023-01-15T16:43:24.944Z,100716.19
2023-01-15T16:46:26.910Z,100707.16
2023-01-15T16:49:33.600Z,100723.88
2023-01-15T16:52:23.804Z,100725.28
2023-01-15T16:55:04.367Z,100711.25
2023-01-15T16:57:40.323Z,100727.28
2023-01-15T17:03:30.467Z,100722.28
2023-01-15T17:06:36.068Z,100735.94
2023-01-15T17:09:23.833Z,100737.59
2023-01-15T17:12:21.342Z,100742.34
2023-01-15T17:14:58.267Z,100734.13
2023-01-15T17:17:34.088Z,100734.31
2023-01-15T17:20:24.542Z,100722.16
2023-01-15T17:22:59.833Z,100722.16
2023-01-15T17:25:35.285Z,100722.44
2023-01-15T17:28:06.461Z,100711.84
2023-01-15T17:30:51.870Z,100707.59
2023-01-15T17:33:28.146Z,100702.56
2023-01-15T17:36:11.109Z,100694.59
2023-01-15T17:38:41.963Z,100696.44
2023-01-15T17:41:22.002Z,100689.44
2023-01-15T17:44:00.513Z,100687.91
2023-01-15T17:46:36.454Z,100692.28
2023-01-15T17:49:05.885Z,100697.56
2023-01-15T17:51:36.818Z,100699.28
2023-01-15T17:54:09.182Z,100689.56
2023-01-15T17:56:56.195Z,100696.41
2023-01-15T17:59:56.598Z,100692.34
2023-01-15T18:02:48.611Z,100694.59
2023-01-15T18:05:52.659Z,100704.81
2023-01-15T18:08:27.071Z,100703.41
2023-01-15T18:11:10.522Z,100705.13
2023-01-15T18:13:47.991Z,100696.56
2023-01-15T18:19:03.236Z,100690.25
2023-01-15T18:21:58.427Z,100678.88
2023-01-15T18:24:40.478Z,100663.13
2023-01-15T18:27:22.300Z,100646.63
2023-01-15T18:29:51.004Z,100632.66
2023-01-15T18:32:29.622Z,100631.66
2023-01-15T18:35:01.966Z,100629.44
2023-01-15T18:37:32.014Z,100623.09
2023-01-15T18:40:05.803Z,100620.22
2023-01-15T18:42:55.935Z,100618.66
2023-01-15T18:45:41.551Z,100612.09
2023-01-15T18:48:25.157Z,100605.63
2023-01-15T18:51:06.765Z,100603.47
2023-01-15T18:53:34.045Z,100601.00
2023-01-15T18:56:06.858Z,100602.34
2023-01-15T18:58:41.028Z,100605.75
2023-01-15T19:01:10.931Z,100596.63
2023-01-15T19:03:50.094Z,100593.16
2023-01-15T19:06:29.999Z,100584.41
2023-01-15T19:09:06.885Z,100586.63
2023-01-15T19:11:43.177Z,100584.97
2023-01-15T19:14:28.976Z,100575.03
2023-01-15T19:17:15.615Z,100566.88
2023-01-15T19:20:05.265Z,100568.41
2023-01-15T19:23:06.236Z,100573.53
2023-01-15T19:26:13.085Z,100588.22
2023-01-15T19:29:08.783Z,100584.50
2023-01-15T19:31:39.575Z,100584.13
2023-01-15T19:34:32.121Z,100593.97
2023-01-15T19:36:56.628Z,100602.97
2023-01-15T19:39:30.169Z,100602.59
2023-01-15T19:42:25.826Z,100593.41
2023-01-15T19:45:11.382Z,100583.22
2023-01-15T19:47:59.651Z,100592.78
2023-01-15T19:50:36.740Z,100599.75
2023-01-15T19:53:03.867Z,100590.69
2023-01-15T19:55:35.379Z,100586.28
2023-01-15T19:58:18.875Z,100585.25
2023-01-15T20:01:17.736Z,100583.50
2023-01-15T20:04:00.212Z,100578.56
2023-01-15T20:09:26.214Z,100591.13
2023-01-15T20:12:25.655Z,100578.16
2023-01-15T20:15:03.131Z,100575.47
2023-01-15T20:17:39.327Z,100577.00
2023-01-15T20:20:06.900Z,100588.50
2023-01-15T20:22:35.233Z,100592.03
2023-01-15T20:25:05.334Z,100592.78
2023-01-15T20:27:36.793Z,100589.94
2023-01-15T20:30:30.258Z,100578.47
2023-01-15T20:33:02.351Z,100573.16
2023-01-15T20:35:36.603Z,100567.13
2023-01-15T20:38:12.291Z,100576.31
2023-01-15T20:40:40.423Z,100580.78
2023-01-15T20:43:26.663Z,100571.03
2023-01-15T20:45:53.733Z,100567.59
2023-01-15T20:48:41.213Z,100557.84
2023-01-15T20:51:12.678Z,100557.31
2023-01-15T20:53:41.757Z,100545.66
2023-01-15T20:56:19.173Z,100547.31
2023-01-15T20:58:52.151Z,100543.00
2023-01-15T21:01:19.449Z,100548.47
2023-01-15T21:03:46.822Z,100556.38
2023-01-15T21:06:27.800Z,100557.00
2023-01-15T21:09:01.165Z,100554.59
2023-01-15T21:11:43.500Z,100545.78
2023-01-15T21:14:10.969Z,100545.69
2023-01-15T21:16:40.845Z,100543.91
2023-01-15T21:19:10.564Z,100537.00
2023-01-15T21:21:56.564Z,100545.09
2023-01-15T21:24:26.497Z,100541.53
2023-01-15T21:27:00.670Z,100547.72
2023-01-15T21:29:33.272Z,100549.69
2023-01-15T21:32:10.560Z,100544.41
2023-01-15T21:34:41.906Z,100538.22
2023-01-15T21:37:12.627Z,100541.59
2023-01-15T21:39:43.843Z,100547.97
2023-01-15T21:42:47.256Z,100535.84
2023-01-15T21:45:22.459Z,100545.44
2023-01-15T21:47:49.833Z,100546.31
2023-01-15T21:50:26.533Z,100546.34
2023-01-15T21:52:56.119Z,100543.03
2023-01-15T21:55:23.612Z,100552.34
2023-01-15T21:57:54.269Z,100541.88
2023-01-15T22:00:32.258Z,100551.41
2023-01-15T22:03:01.807Z,100547.88
2023-01-15T22:05:40.572Z,100552.50
2023-01-15T22:08:41.687Z,100548.41
2023-01-15T22:11:20.667Z,100541.13
2023-01-15T22:13:52.653Z,100543.72
2023-01-15T22:16:22.638Z,100540.34
2023-01-15T22:18:53.733Z,100537.66
2023-01-15T22:21:28.280Z,100520.22
2023-01-15T22:24:10.939Z,100510.72
2023-01-15T22:26:38.849Z,100504.22
2023-01-15T22:31:47.696Z,100498.66
2023-01-15T22:34:36.487Z,100492.47
2023-01-15T22:37:12.192Z,100489.09
2023-01-15T22:39:44.831Z,100483.66
2023-01-15T22:42:28.100Z,100494.28
2023-01-15T22:44:59.917Z,100491.88
2023-01-15T22:47:29.055Z,100486.78
2023-01-15T22:50:46.347Z,100484.38
2023-01-15T22:53:23.891Z,100471.84
2023-01-15T22:56:05.310Z,100466.00
2023-01-15T22:58:35.273Z,100457.25
2023-01-15T23:01:03.219Z,100456.63
2023-01-15T23:03:42.207Z,100453.91
2023-01-15T23:06:16.902Z,100453.03
2023-01-15T23:08:51.884Z,100446.66
2023-01-15T23:11:20.497Z,100444.59
2023-01-15T23:13:51.679Z,100433.56
2023-01-15T23:16:22.881Z,100438.00
2023-01-15T23:19:02.599Z,100434.84
2023-01-15T23:21:30.543Z,100434.31
2023-01-15T23:24:08.693Z,100434.38
2023-01-15T23:26:46.565Z,100429.94
2023-01-15T23:29:21.684Z,100427.81
2023-01-15T23:32:06.972Z,100424.22
2023-01-15T23:34:55.733Z,100399.75
2023-01-15T23:40:29.923Z,100380.94
2023-01-15T23:43:23.762Z,100371.59
2023-01-15T23:46:20.641Z,100368.25
2023-01-15T23:48:59.657Z,100373.53
2023-01-15T23:51:59.277Z,100364.91
2023-01-15T23:54:34.715Z,100362.47
2023-01-15T23:57:21.572Z,100353.63
